createdAt,value
2022-11-06T00:02:47.437Z,17.13
2022-11-06T00:06:49.438Z,15.43
2022-11-06T00:10:32.256Z,14.33
2022-11-06T00:14:14.958Z,16.03
2022-11-06T00:17:58.124Z,15.00
2022-11-06T00:21:40.432Z,15.53
2022-11-06T00:25:22.793Z,15.37
2022-11-06T00:29:07.685Z,16.23
2022-11-06T00:32:49.842Z,18.20
2022-11-06T00:36:32.052Z,40.17
2022-11-06T00:40:14.201Z,19.57
2022-11-06T00:44:00.438Z,19.00
2022-11-06T00:47:42.819Z,15.95
2022-11-06T00:51:41.318Z,18.97
2022-11-06T00:55:23.262Z,20.33
2022-11-06T00:59:07.942Z,18.70
2022-11-06T01:02:50.082Z,18.23
2022-11-06T01:06:35.475Z,13.73
2022-11-06T01:10:17.581Z,14.13
2022-11-06T01:14:03.425Z,12.90
2022-11-06T01:17:45.505Z,14.27
2022-11-06T01:21:33.906Z,14.30
2022-11-06T01:25:15.865Z,14.17
2022-11-06T01:28:58.462Z,14.27
2022-11-06T01:32:40.574Z,16.80
2022-11-06T01:36:23.069Z,15.60
2022-11-06T01:40:05.425Z,15.73
2022-11-06T01:43:51.658Z,14.43
2022-11-06T01:47:33.605Z,14.30
2022-11-06T01:51:16.896Z,15.50
2022-11-06T01:55:09.110Z,16.60
2022-11-06T01:58:53.633Z,15.97
2022-11-06T02:02:37.781Z,15.57
2022-11-06T02:06:20.200Z,15.30
2022-11-06T02:10:02.544Z,16.40
2022-11-06T02:14:09.970Z,15.10
2022-11-06T02:18:17.262Z,14.70
2022-11-06T02:21:59.392Z,16.90
2022-11-06T02:26:07.149Z,15.73
2022-11-06T02:30:05.536Z,17.17
2022-11-06T02:33:52.175Z,18.07
2022-11-06T02:37:37.336Z,14.63
2022-11-06T02:41:23.294Z,15.93
2022-11-06T02:45:09.131Z,15.13
2022-11-06T02:48:59.127Z,16.23
2022-11-06T02:52:50.670Z,15.47
2022-11-06T02:56:40.035Z,16.67
2022-11-06T03:00:24.066Z,16.43
2022-11-06T03:04:14.542Z,16.70
2022-11-06T03:08:08.830Z,17.50
2022-11-06T03:12:13.944Z,16.50
2022-11-06T03:16:08.948Z,17.23
2022-11-06T03:20:23.065Z,15.80
2022-11-06T03:24:14.127Z,16.87
2022-11-06T03:28:06.334Z,17.20
2022-11-06T03:32:08.109Z,17.60
2022-11-06T03:36:08.058Z,16.50
2022-11-06T03:39:54.865Z,16.00
2022-11-06T03:43:42.281Z,15.77
2022-11-06T03:47:39.040Z,15.33
2022-11-06T03:51:29.004Z,14.87
2022-11-06T03:55:18.621Z,15.50
2022-11-06T03:59:04.522Z,13.63
2022-11-06T04:03:05.183Z,14.35
2022-11-06T04:07:02.908Z,14.90
2022-11-06T04:11:08.843Z,14.13
2022-11-06T04:14:55.081Z,13.17
2022-11-06T04:18:36.998Z,14.00
2022-11-06T04:23:01.274Z,14.23
2022-11-06T04:27:09.007Z,13.77
2022-11-06T04:31:08.713Z,13.27
2022-11-06T04:34:59.715Z,14.33
2022-11-06T04:38:54.039Z,14.37
2022-11-06T04:42:40.326Z,12.80
2022-11-06T04:50:09.562Z,12.17
2022-11-06T04:53:53.594Z,12.47
2022-11-06T04:57:35.764Z,12.60
2022-11-06T05:01:18.205Z,13.33
2022-11-06T05:05:00.187Z,13.23
2022-11-06T05:08:42.893Z,12.30
2022-11-06T05:12:25.113Z,12.43
2022-11-06T05:16:07.588Z,12.00
2022-11-06T05:19:49.653Z,12.30
2022-11-06T05:23:31.596Z,12.47
2022-11-06T05:27:13.809Z,11.30
2022-11-06T05:30:56.034Z,12.20
2022-11-06T05:34:37.966Z,12.07
2022-11-06T05:38:20.160Z,10.47
2022-11-06T05:42:02.130Z,12.57
2022-11-06T05:45:44.166Z,11.90
2022-11-06T05:49:26.118Z,12.03
2022-11-06T05:53:08.197Z,10.70
2022-11-06T05:56:51.483Z,11.17
2022-11-06T06:00:33.566Z,11.23
2022-11-06T06:04:19.568Z,10.50
2022-11-06T06:12:14.626Z,10.37
2022-11-06T06:16:04.127Z,10.50
2022-11-06T06:19:47.484Z,9.90
2022-11-06T06:23:29.583Z,10.33
2022-11-06T06:27:11.623Z,9.97
2022-11-06T06:30:58.572Z,10.10
2022-11-06T06:34:43.364Z,9.40
2022-11-06T06:38:26.153Z,10.77
2022-11-06T06:42:09.790Z,9.40
2022-11-06T06:45:51.934Z,8.50
2022-11-06T06:49:34.112Z,8.30
2022-11-06T06:53:19.517Z,8.07
2022-11-06T06:57:01.886Z,7.93
2022-11-06T07:00:44.130Z,4.80
2022-11-06T07:04:26.123Z,8.50
2022-11-06T07:08:10.937Z,5.30
2022-11-06T07:11:53.335Z,5.77
2022-11-06T07:15:36.386Z,6.20
2022-11-06T07:19:18.676Z,10.60
2022-11-06T07:23:06.165Z,7.27
2022-11-06T07:26:48.653Z,5.87
2022-11-06T07:30:31.455Z,6.50
2022-11-06T07:34:14.177Z,5.83
2022-11-06T07:37:56.253Z,6.10
2022-11-06T07:41:38.590Z,6.40
2022-11-06T07:49:08.209Z,6.10
2022-11-06T07:52:50.159Z,5.27
2022-11-06T07:56:32.447Z,6.20
2022-11-06T08:00:15.570Z,4.77
2022-11-06T08:03:57.975Z,4.13
2022-11-06T08:07:40.815Z,4.53
2022-11-06T08:11:22.879Z,5.03
2022-11-06T08:15:16.183Z,4.33
2022-11-06T08:18:59.324Z,4.33
2022-11-06T08:22:41.430Z,3.80
2022-11-06T08:26:23.567Z,4.33
2022-11-06T08:30:06.095Z,3.60
2022-11-06T08:33:48.219Z,4.10
2022-11-06T08:37:30.233Z,3.87
2022-11-06T08:41:12.813Z,3.90
2022-11-06T08:44:54.698Z,3.97
2022-11-06T08:48:36.694Z,4.87
2022-11-06T08:52:18.835Z,3.80
2022-11-06T08:56:03.957Z,3.80
2022-11-06T08:59:45.867Z,4.57
2022-11-06T09:03:28.027Z,4.40
2022-11-06T09:07:10.376Z,3.83
2022-11-06T09:10:58.173Z,3.70
2022-11-06T09:14:40.624Z,3.57
2022-11-06T09:18:22.560Z,3.27
2022-11-06T09:22:04.640Z,3.57
2022-11-06T09:25:52.177Z,4.43
2022-11-06T09:29:34.539Z,5.10
2022-11-06T09:33:16.924Z,4.10
2022-11-06T09:36:59.188Z,6.03
2022-11-06T09:41:06.683Z,4.77
2022-11-06T09:45:17.948Z,4.97
2022-11-06T09:49:12.687Z,3.67
2022-11-06T09:53:05.625Z,4.80
2022-11-06T09:56:53.196Z,4.50
2022-11-06T10:00:35.214Z,3.93
2022-11-06T10:04:47.330Z,3.73
2022-11-06T10:08:31.098Z,3.13
2022-11-06T10:17:43.060Z,3.47
2022-11-06T10:21:30.660Z,3.17
2022-11-06T10:25:20.387Z,3.97
2022-11-06T10:29:09.383Z,3.45
2022-11-06T10:33:11.385Z,3.72
2022-11-06T10:37:01.880Z,3.40
2022-11-06T10:40:46.947Z,4.03
2022-11-06T10:44:37.064Z,3.85
2022-11-06T10:48:45.492Z,4.70
2022-11-06T10:52:45.635Z,4.78
2022-11-06T10:56:48.401Z,3.23
2022-11-06T11:00:35.992Z,3.63
2022-11-06T11:04:24.357Z,3.37
2022-11-06T11:08:29.935Z,3.77
2022-11-06T11:12:32.905Z,3.17
2022-11-06T11:16:24.440Z,3.10
2022-11-06T11:20:34.574Z,2.33
2022-11-06T11:24:18.503Z,2.13
2022-11-06T11:28:16.877Z,3.47
2022-11-06T11:32:07.869Z,1.80
2022-11-06T11:39:53.216Z,2.97
2022-11-06T11:43:36.363Z,1.93
2022-11-06T11:47:24.035Z,1.80
2022-11-06T11:51:36.842Z,2.20
2022-11-06T11:55:30.868Z,2.30
2022-11-06T11:59:22.365Z,2.03
2022-11-06T12:03:13.220Z,10.20
2022-11-06T12:08:01.667Z,2.30
2022-11-06T12:11:44.268Z,6.50
2022-11-06T12:15:57.399Z,7.70
2022-11-06T12:19:44.434Z,12.47
2022-11-06T12:24:08.692Z,15.87
2022-11-06T12:28:06.601Z,11.80
2022-11-06T12:32:02.061Z,5.97
2022-11-06T12:40:25.885Z,4.80
2022-11-06T12:44:14.640Z,2.63
2022-11-06T12:48:11.506Z,2.60
2022-11-06T12:52:03.564Z,4.53
2022-11-06T12:56:00.323Z,4.83
2022-11-06T12:59:50.225Z,3.10
2022-11-06T13:03:49.707Z,2.90
2022-11-06T13:12:50.188Z,4.43
2022-11-06T13:22:48.361Z,2.83
2022-11-06T13:26:45.896Z,1.92
2022-11-06T13:30:44.048Z,1.60
2022-11-06T13:34:35.186Z,2.10
2022-11-06T13:38:43.906Z,2.20
2022-11-06T13:48:02.947Z,2.05
2022-11-06T13:52:25.351Z,1.58
2022-11-06T13:56:09.065Z,4.78
2022-11-06T14:00:17.042Z,1.92
2022-11-06T14:04:20.305Z,1.63
2022-11-06T14:08:22.092Z,1.88
2022-11-06T14:12:15.400Z,62.63
2022-11-06T14:16:38.185Z,3.20
2022-11-06T14:20:42.241Z,2.58
2022-11-06T14:25:03.658Z,3.80
2022-11-06T14:28:48.237Z,5.78
2022-11-06T14:32:41.307Z,2.78
2022-11-06T14:36:30.796Z,5.05
2022-11-06T14:40:14.517Z,9.13
2022-11-06T14:44:06.491Z,3.42
2022-11-06T14:47:54.594Z,2.83
2022-11-06T14:51:37.012Z,2.87
2022-11-06T14:55:32.955Z,2.90
2022-11-06T15:03:34.437Z,2.57
2022-11-06T15:13:04.231Z,2.93
2022-11-06T15:16:51.133Z,2.58
2022-11-06T15:20:39.606Z,3.10
2022-11-06T15:24:29.312Z,6.53
2022-11-06T15:28:16.462Z,2.60
2022-11-06T15:32:12.763Z,2.70
2022-11-06T15:35:59.034Z,1.55
2022-11-06T15:43:45.357Z,1.90
2022-11-06T15:47:29.561Z,1.58
2022-11-06T15:51:29.142Z,1.87
2022-11-06T15:55:25.337Z,1.27
2022-11-06T15:59:13.815Z,2.10
2022-11-06T16:03:00.464Z,1.70
2022-11-06T16:06:43.112Z,1.93
2022-11-06T16:10:25.576Z,2.03
2022-11-06T16:14:12.056Z,1.83
2022-11-06T16:18:05.345Z,4.57
2022-11-06T16:22:13.454Z,2.30
2022-11-06T16:26:06.165Z,2.60
2022-11-06T16:29:52.475Z,3.03
2022-11-06T16:37:16.540Z,2.97
2022-11-06T16:41:01.665Z,1.80
2022-11-06T16:44:44.734Z,2.60
2022-11-06T16:48:34.967Z,3.67
2022-11-06T16:52:40.188Z,2.93
2022-11-06T16:56:31.881Z,3.43
2022-11-06T17:00:19.867Z,2.83
2022-11-06T17:04:03.140Z,3.03
2022-11-06T17:07:46.552Z,3.97
2022-11-06T17:11:28.842Z,7.63
2022-11-06T17:15:10.776Z,5.67
2022-11-06T17:18:56.028Z,3.27
2022-11-06T17:22:38.860Z,4.30
2022-11-06T17:26:30.389Z,4.80
2022-11-06T17:30:14.886Z,4.10
2022-11-06T17:33:56.978Z,3.97
2022-11-06T17:37:39.246Z,4.77
2022-11-06T17:41:30.767Z,4.90
2022-11-06T17:45:14.835Z,7.10
2022-11-06T17:48:57.163Z,5.00
2022-11-06T17:52:39.243Z,5.47
2022-11-06T17:56:22.715Z,5.90
2022-11-06T18:00:05.226Z,6.83
2022-11-06T18:03:47.181Z,6.10
2022-11-06T18:07:32.199Z,5.20
2022-11-06T18:11:14.552Z,6.80
2022-11-06T18:14:56.532Z,6.00
2022-11-06T18:18:40.932Z,6.10
2022-11-06T18:22:24.347Z,4.47
2022-11-06T18:26:07.291Z,4.50
2022-11-06T18:29:49.147Z,4.47
2022-11-06T18:33:31.560Z,5.17
2022-11-06T18:37:13.445Z,4.83
2022-11-06T18:40:56.586Z,5.60
2022-11-06T18:44:41.402Z,6.70
2022-11-06T18:48:23.895Z,16.23
2022-11-06T18:52:06.381Z,7.90
2022-11-06T18:55:48.364Z,6.27
2022-11-06T18:59:30.474Z,4.97
2022-11-06T19:03:12.387Z,4.93
2022-11-06T19:06:55.245Z,4.70
2022-11-06T19:10:38.745Z,6.10
2022-11-06T19:14:22.079Z,5.87
2022-11-06T19:18:04.202Z,10.50
2022-11-06T19:21:48.042Z,4.80
2022-11-06T19:25:30.338Z,4.70
2022-11-06T19:29:13.128Z,4.53
2022-11-06T19:32:55.053Z,8.50
2022-11-06T19:36:37.176Z,5.33
2022-11-06T19:40:20.200Z,4.90
2022-11-06T19:44:02.099Z,6.10
2022-11-06T19:47:44.146Z,4.60
2022-11-06T19:51:29.011Z,3.90
2022-11-06T19:55:25.637Z,4.27
2022-11-06T19:59:09.518Z,3.90
2022-11-06T20:02:51.496Z,4.37
2022-11-06T20:06:35.416Z,5.10
2022-11-06T20:10:17.340Z,5.13
2022-11-06T20:13:59.432Z,5.30
2022-11-06T20:17:41.333Z,3.97
2022-11-06T20:21:26.315Z,4.33
2022-11-06T20:25:09.579Z,3.50
2022-11-06T20:28:51.891Z,4.50
2022-11-06T20:32:37.174Z,4.20
2022-11-06T20:36:24.932Z,4.47
2022-11-06T20:40:07.666Z,4.70
2022-11-06T20:43:53.182Z,4.50
2022-11-06T20:47:35.281Z,4.22
2022-11-06T20:51:20.525Z,4.43
2022-11-06T20:55:04.814Z,4.03
2022-11-06T20:58:49.011Z,5.43
2022-11-06T21:02:32.154Z,5.07
2022-11-06T21:06:14.987Z,4.97
2022-11-06T21:09:58.392Z,4.60
2022-11-06T21:13:41.487Z,3.63
2022-11-06T21:17:24.622Z,4.33
2022-11-06T21:21:09.952Z,4.80
2022-11-06T21:24:51.853Z,5.13
2022-11-06T21:28:33.898Z,4.10
2022-11-06T21:32:15.862Z,5.67
2022-11-06T21:36:09.137Z,5.70
2022-11-06T21:39:51.205Z,5.30
2022-11-06T21:43:35.113Z,5.93
2022-11-06T21:47:18.274Z,5.07
2022-11-06T21:51:16.678Z,4.53
2022-11-06T21:55:19.475Z,4.03
2022-11-06T21:59:04.885Z,4.23
2022-11-06T22:02:51.305Z,3.95
2022-11-06T22:10:16.027Z,4.40
2022-11-06T22:14:03.821Z,5.83
2022-11-06T22:17:46.686Z,4.00
2022-11-06T22:21:30.639Z,4.70
2022-11-06T22:25:12.789Z,4.27
2022-11-06T22:28:56.557Z,4.47
2022-11-06T22:32:38.405Z,4.93
2022-11-06T22:36:20.800Z,4.13
2022-11-06T22:40:02.708Z,4.60
2022-11-06T22:43:44.896Z,4.30
2022-11-06T22:47:27.388Z,4.83
2022-11-06T22:51:13.068Z,5.00
2022-11-06T22:54:54.932Z,5.03
2022-11-06T22:58:36.897Z,4.90
2022-11-06T23:02:20.495Z,5.13
2022-11-06T23:06:06.734Z,4.47
2022-11-06T23:09:48.715Z,4.05
2022-11-06T23:13:30.740Z,4.43
2022-11-06T23:17:21.764Z,4.17
2022-11-06T23:21:12.617Z,5.73
2022-11-06T23:24:56.118Z,4.83
2022-11-06T23:28:38.031Z,3.57
2022-11-06T23:32:19.993Z,3.53
2022-11-06T23:36:10.443Z,4.03
2022-11-06T23:39:52.851Z,3.23
2022-11-06T23:43:34.748Z,3.67
2022-11-06T23:47:16.800Z,3.60
2022-11-06T23:51:00.248Z,3.67
2022-11-06T23:54:42.454Z,3.10
2022-11-06T23:58:24.391Z,2.50
